Time;durP1;ratioP1;P1;durP2;ratioP2;P2;SDS_P1;SDS_P2;PMS_P1;PMS_P2;Temp;Humidity;BMP_temperature;BMP_pressure;BME280_temperature;BME280_humidity;BME280_pressure;Samples;Min_cycle;Max_cycle;Signal;HPM_P1;HPM_P2
2022/06/13 00:01:30;;;;;;;6.05;2.38;;;;;;;;;;5007821;28;97251;-72
2022/06/13 00:03:57;;;;;;;3.72;2.55;;;;;;;;;;5010924;28;95426;-72
2022/06/13 00:06:23;;;;;;;6.55;2.75;;;;;;;;;;5013052;28;96700;-72
2022/06/13 00:08:50;;;;;;;7.88;2.55;;;;;;;;;;5012487;28;97303;-72
2022/06/13 00:11:23;;;;;;;5.25;2.63;;;;;;;;;;5008214;28;95928;-72
2022/06/13 00:13:52;;;;;;;3.83;2.22;;;;;;;;;;5005520;28;96783;-72
2022/06/13 00:16:19;;;;;;;4.32;2.55;;;;;;;;;;5011691;28;97251;-72
2022/06/13 00:18:49;;;;;;;5.50;2.75;;;;;;;;;;5011435;28;96486;-72
2022/06/13 00:21:24;;;;;;;5.72;2.55;;;;;;;;;;5008199;28;97348;-73
2022/06/13 00:23:50;;;;;;;5.00;2.45;;;;;;;;;;5003151;28;95374;-72
2022/06/13 00:26:21;;;;;;;3.58;2.17;;;;;;;;;;5011664;28;96749;-72
2022/06/13 00:28:48;;;;;;;7.45;2.60;;;;;;;;;;5003870;28;97248;-72
2022/06/13 00:31:14;;;;;;;4.50;2.63;;;;;;;;;;5009332;28;95398;-72
2022/06/13 00:33:41;;;;;;;5.28;2.85;;;;;;;;;;5011406;28;97242;-72
2022/06/13 00:36:08;;;;;;;5.93;2.63;;;;;;;;;;5010738;28;96214;-72
2022/06/13 00:38:37;;;;;;;5.60;2.72;;;;;;;;;;5013453;28;95485;-72
2022/06/13 00:41:07;;;;;;;5.43;2.60;;;;;;;;;;5010131;28;97346;-71
2022/06/13 00:43:34;;;;;;;5.28;2.83;;;;;;;;;;5011344;28;95298;-72
2022/06/13 00:46:01;;;;;;;4.65;2.55;;;;;;;;;;5010464;28;96000;-72
2022/06/13 00:48:28;;;;;;;6.93;2.42;;;;;;;;;;5008986;28;97407;-72
2022/06/13 00:50:56;;;;;;;7.90;2.92;;;;;;;;;;5007219;28;95406;-72
2022/06/13 00:53:24;;;;;;;4.80;2.53;;;;;;;;;;5006522;28;96898;-72
2022/06/13 00:55:56;;;;;;;7.05;2.70;;;;;;;;;;5009728;28;96100;-73
2022/06/13 00:58:23;;;;;;;;;;;;;;;;;;5011169;28;96271;-72
2022/06/13 01:00:51;;;;;;;5.28;2.67;;;;;;;;;;5010486;28;126275;-72
2022/06/13 01:03:17;;;;;;;5.53;2.85;;;;;;;;;;5011221;28;95033;-72
2022/06/13 01:05:46;;;;;;;4.20;2.50;;;;;;;;;;5010663;28;95303;-72
2022/06/13 01:08:14;;;;;;;5.47;2.65;;;;;;;;;;5013447;28;96344;-72
2022/06/13 01:13:38;;;;;;;7.05;3.10;;;;;;;;;;5009002;28;97061;-72
2022/06/13 01:16:16;;;;;;;7.95;2.88;;;;;;;;;;5014026;28;97319;-72
2022/06/13 01:18:50;;;;;;;6.10;2.53;;;;;;;;;;5013897;28;95952;-71
2022/06/13 01:21:26;;;;;;;5.28;3.00;;;;;;;;;;5006872;28;96504;-72
2022/06/13 01:24:11;;;;;;;4.93;2.58;;;;;;;;;;5015246;28;97343;-72
2022/06/13 01:26:58;;;;;;;5.85;2.72;;;;;;;;;;5013264;28;96127;-71
2022/06/13 01:29:27;;;;;;;7.38;3.15;;;;;;;;;;5007649;28;96521;-72
2022/06/13 01:32:08;;;;;;;7.05;3.00;;;;;;;;;;5012366;28;95317;-73
2022/06/13 01:34:53;;;;;;;5.63;2.70;;;;;;;;;;5013654;28;96854;-72
2022/06/13 01:37:27;;;;;;;5.03;2.58;;;;;;;;;;5007060;28;97321;-72
2022/06/13 01:40:04;;;;;;;4.43;2.50;;;;;;;;;;5013895;28;96441;-73
2022/06/13 01:42:49;;;;;;;7.95;2.65;;;;;;;;;;5012649;28;97026;-72
2022/06/13 01:45:22;;;;;;;5.43;2.90;;;;;;;;;;5006344;28;97347;-73
2022/06/13 01:47:55;;;;;;;4.72;2.78;;;;;;;;;;5016542;28;95306;-72
2022/06/13 01:50:24;;;;;;;5.65;3.05;;;;;;;;;;5010109;28;97251;-73
2022/06/13 01:53:00;;;;;;;8.52;2.90;;;;;;;;;;5005563;28;95941;-73
2022/06/13 01:55:26;;;;;;;5.20;2.90;;;;;;;;;;5012207;28;96050;-73
2022/06/13 01:58:13;;;;;;;5.00;2.80;;;;;;;;;;5013364;28;97309;-72
2022/06/13 02:00:41;;;;;;;5.75;2.92;;;;;;;;;;5005377;28;95323;-73
2022/06/13 02:03:26;;;;;;;8.68;3.25;;;;;;;;;;5009811;28;97176;-72
2022/06/13 02:06:01;;;;;;;6.25;3.00;;;;;;;;;;5013179;28;97105;-72
2022/06/13 02:08:30;;;;;;;5.63;2.80;;;;;;;;;;5011908;28;95444;-72
2022/06/13 02:10:56;;;;;;;4.78;2.67;;;;;;;;;;5013718;28;95440;-73
2022/06/13 02:13:28;;;;;;;6.30;3.63;;;;;;;;;;5013423;28;95255;-72
2022/06/13 02:15:57;;;;;;;6.70;2.97;;;;;;;;;;5013514;28;96699;-72
2022/06/13 02:18:30;;;;;;;6.22;3.15;;;;;;;;;;5004359;28;97385;-72
2022/06/13 02:20:58;;;;;;;4.57;2.67;;;;;;;;;;5009995;28;95428;-72
2022/06/13 02:23:27;;;;;;;5.63;2.90;;;;;;;;;;5012441;28;95869;-73
2022/06/13 02:26:02;;;;;;;6.22;3.10;;;;;;;;;;5012687;28;96274;-72
2022/06/13 02:28:41;;;;;;;7.30;3.40;;;;;;;;;;5005014;28;95248;-72
2022/06/13 02:31:17;;;;;;;7.40;3.38;;;;;;;;;;5010304;28;96968;-72
2022/06/13 02:33:46;;;;;;;5.78;2.97;;;;;;;;;;5015776;28;97458;-73
2022/06/13 02:36:14;;;;;;;6.50;3.10;;;;;;;;;;5010928;28;96815;-72
2022/06/13 02:38:43;;;;;;;7.95;2.80;;;;;;;;;;5012293;28;96354;-72
2022/06/13 02:41:12;;;;;;;6.40;3.10;;;;;;;;;;5011448;28;95245;-72
2022/06/13 02:43:41;;;;;;;6.55;3.35;;;;;;;;;;5012338;28;95368;-72
2022/06/13 02:46:15;;;;;;;6.60;2.90;;;;;;;;;;5011275;28;96472;-72
2022/06/13 02:48:46;;;;;;;8.95;3.58;;;;;;;;;;5006500;28;95266;-72
2022/06/13 02:51:15;;;;;;;6.68;3.17;;;;;;;;;;5010830;28;96617;-72
2022/06/13 02:53:52;;;;;;;5.38;2.78;;;;;;;;;;5015731;28;97317;-72
2022/06/13 02:56:18;;;;;;;7.53;3.60;;;;;;;;;;5009122;28;96707;-72
2022/06/13 02:58:54;;;;;;;4.68;2.72;;;;;;;;;;5011947;28;97208;-72
2022/06/13 03:01:31;;;;;;;6.30;2.78;;;;;;;;;;5012916;28;96742;-72
2022/06/13 03:04:24;;;;;;;5.45;2.80;;;;;;;;;;5008965;28;96760;-72
2022/06/13 03:06:59;;;;;;;5.55;3.38;;;;;;;;;;4975218;28;97334;-72
2022/06/13 03:09:30;;;;;;;6.95;3.17;;;;;;;;;;5011885;28;95181;-72
2022/06/13 03:12:01;;;;;;;5.32;2.88;;;;;;;;;;5007788;28;96903;-72
2022/06/13 03:14:36;;;;;;;8.50;3.25;;;;;;;;;;5009482;28;97359;-72
2022/06/13 03:17:12;;;;;;;8.93;3.33;;;;;;;;;;5016163;28;95212;-72
2022/06/13 03:19:45;;;;;;;6.72;3.33;;;;;;;;;;5011473;28;97635;-72
2022/06/13 03:22:26;;;;;;;6.20;3.10;;;;;;;;;;5007600;28;95625;-72
2022/06/13 03:24:55;;;;;;;7.33;3.13;;;;;;;;;;5002853;28;96743;-72
2022/06/13 03:27:31;;;;;;;5.78;2.80;;;;;;;;;;5011148;28;97340;-72
2022/06/13 03:30:09;;;;;;;7.15;3.22;;;;;;;;;;5005372;28;95465;-72
2022/06/13 03:33:39;;;;;;;4.50;2.70;;;;;;;;;;5009500;28;96846;-72
2022/06/13 03:35:34;;;;;;;8.63;3.42;;;;;;;;;;5010147;28;97311;-72
2022/06/13 03:38:01;;;;;;;6.63;3.78;;;;;;;;;;5012204;28;95257;-72
2022/06/13 03:40:28;;;;;;;7.10;3.03;;;;;;;;;;5013799;28;96131;-72
2022/06/13 03:42:57;;;;;;;6.05;3.30;;;;;;;;;;5006264;28;95376;-72
2022/06/13 03:45:26;;;;;;;5.78;3.35;;;;;;;;;;5011430;28;97133;-73
2022/06/13 03:47:54;;;;;;;8.80;3.20;;;;;;;;;;5011082;28;97410;-71
2022/06/13 20:57:06;;;;;;;3.00;1.20;;;;;;;;;;5084791;27;96128;-72
2022/06/13 20:59:33;;;;;;;1.35;0.90;;;;;;;;;;5058993;27;97144;-72
2022/06/13 21:02:03;;;;;;;3.35;0.73;;;;;;;;;;5059081;27;95437;-72
2022/06/13 21:04:31;;;;;;;4.23;1.47;;;;;;;;;;5065033;27;95678;-72
2022/06/13 21:06:58;;;;;;;4.18;0.80;;;;;;;;;;5059159;27;97390;-72
2022/06/13 21:12:09;;;;;;;2.65;1.13;;;;;;;;;;5056343;27;96859;-72
2022/06/13 21:14:36;;;;;;;4.53;1.42;;;;;;;;;;5061468;27;97307;-72
2022/06/13 21:17:02;;;;;;;4.30;1.50;;;;;;;;;;5060055;27;95529;-72
2022/06/13 21:19:29;;;;;;;5.13;1.00;;;;;;;;;;5064994;27;96100;-72
2022/06/13 21:21:56;;;;;;;1.45;0.90;;;;;;;;;;5060610;27;95293;-72
2022/06/13 21:24:22;;;;;;;1.60;1.23;;;;;;;;;;5056195;27;97910;-73
2022/06/13 21:26:49;;;;;;;4.18;1.00;;;;;;;;;;5063689;27;97369;-72
2022/06/13 21:29:16;;;;;;;3.05;1.10;;;;;;;;;;5065238;27;95418;-72
2022/06/13 21:31:44;;;;;;;1.70;0.93;;;;;;;;;;5059737;27;97191;-72
2022/06/13 21:34:12;;;;;;;0.80;0.80;;;;;;;;;;5058230;27;95330;-72
2022/06/13 21:36:40;;;;;;;7.28;1.20;;;;;;;;;;5059142;27;95392;-72
2022/06/13 21:39:07;;;;;;;4.47;1.48;;;;;;;;;;5062484;27;96756;-72
2022/06/13 21:41:35;;;;;;;4.55;1.67;;;;;;;;;;5055415;27;96456;-72
2022/06/13 21:44:02;;;;;;;3.10;1.15;;;;;;;;;;5058336;27;97088;-72
2022/06/13 21:46:29;;;;;;;2.45;0.85;;;;;;;;;;5054248;27;97203;-73
2022/06/13 21:48:57;;;;;;;1.00;0.90;;;;;;;;;;5057250;27;95422;-72
2022/06/13 21:51:26;;;;;;;4.00;1.02;;;;;;;;;;5060872;27;96768;-72
2022/06/13 21:53:53;;;;;;;1.88;1.00;;;;;;;;;;5049158;27;97557;-72
2022/06/13 21:56:20;;;;;;;5.40;0.90;;;;;;;;;;5076559;27;96157;-72
2022/06/13 21:58:47;;;;;;;2.70;1.02;;;;;;;;;;5087907;27;96600;-71
2022/06/13 22:01:14;;;;;;;1.83;1.10;;;;;;;;;;5093334;27;97307;-71
2022/06/13 22:03:41;;;;;;;1.38;0.90;;;;;;;;;;5088182;27;95766;-72
2022/06/13 22:06:08;;;;;;;2.25;1.25;;;;;;;;;;5086944;27;96235;-72
2022/06/13 22:08:34;;;;;;;2.65;1.52;;;;;;;;;;5073576;27;95376;-72
2022/06/13 22:11:01;;;;;;;4.70;1.42;;;;;;;;;;5076491;27;97271;-72
2022/06/13 22:13:28;;;;;;;4.78;1.40;;;;;;;;;;5075409;27;97457;-72
2022/06/13 22:15:54;;;;;;;3.20;1.10;;;;;;;;;;5075908;27;95472;-72
2022/06/13 22:18:20;;;;;;;1.52;1.02;;;;;;;;;;5071137;27;95813;-72
2022/06/13 22:20:47;;;;;;;2.10;1.10;;;;;;;;;;5072976;27;97667;-72
2022/06/13 22:23:14;;;;;;;4.50;1.42;;;;;;;;;;5041205;27;95425;-72
2022/06/13 22:25:42;;;;;;;1.73;1.15;;;;;;;;;;5054500;27;97531;-72
2022/06/13 22:28:13;;;;;;;5.82;1.27;;;;;;;;;;5064839;27;96185;-72
2022/06/13 22:30:40;;;;;;;2.58;1.27;;;;;;;;;;5067627;27;97187;-71
2022/06/13 22:33:06;;;;;;;2.75;1.10;;;;;;;;;;5052866;27;96082;-72
2022/06/13 22:35:33;;;;;;;2.60;1.10;;;;;;;;;;5056164;27;95177;-72
2022/06/13 22:38:01;;;;;;;1.92;1.13;;;;;;;;;;5055610;27;96885;-71
2022/06/13 22:40:29;;;;;;;1.33;0.90;;;;;;;;;;5074044;27;96093;-71
2022/06/13 22:42:56;;;;;;;3.70;1.00;;;;;;;;;;5073787;27;95246;-71
2022/06/13 22:45:26;;;;;;;1.60;1.00;;;;;;;;;;5076452;27;96721;-72
2022/06/13 22:50:37;;;;;;;5.28;1.00;;;;;;;;;;5072080;27;96733;-72
2022/06/13 22:53:04;;;;;;;5.57;1.80;;;;;;;;;;5056230;27;97292;-72
2022/06/13 22:55:30;;;;;;;5.93;1.30;;;;;;;;;;5033868;27;95288;-72
2022/06/13 22:57:57;;;;;;;2.67;1.40;;;;;;;;;;5054416;27;97091;-71
2022/06/13 23:00:23;;;;;;;3.03;1.55;;;;;;;;;;5067236;27;97447;-71
2022/06/13 23:02:50;;;;;;;3.10;1.05;;;;;;;;;;5075099;27;96288;-71
2022/06/13 23:05:19;;;;;;;3.75;1.25;;;;;;;;;;5074270;27;95415;-71
2022/06/13 23:07:48;;;;;;;1.67;1.08;;;;;;;;;;5076901;27;95300;-72
2022/06/13 23:10:14;;;;;;;3.97;1.63;;;;;;;;;;5074166;27;97131;-71
2022/06/13 23:12:40;;;;;;;2.92;1.35;;;;;;;;;;5073813;27;96305;-71
2022/06/13 23:15:07;;;;;;;6.32;1.15;;;;;;;;;;5072173;27;96220;-71
2022/06/13 23:17:33;;;;;;;1.30;1.17;;;;;;;;;;5074177;27;95488;-71
2022/06/13 23:20:00;;;;;;;2.25;1.20;;;;;;;;;;5073972;27;96127;-73
2022/06/13 23:22:27;;;;;;;3.42;1.10;;;;;;;;;;5070652;27;96636;-72
2022/06/13 23:24:54;;;;;;;3.42;1.30;;;;;;;;;;5074859;27;96821;-72
2022/06/13 23:27:21;;;;;;;4.88;1.35;;;;;;;;;;5077250;27;97389;-72
2022/06/13 23:29:51;;;;;;;2.28;1.40;;;;;;;;;;5073423;27;96839;-71
2022/06/13 23:32:18;;;;;;;1.20;1.02;;;;;;;;;;5058600;27;97576;-72
2022/06/13 23:34:44;;;;;;;1.42;1.02;;;;;;;;;;5055013;27;95330;-72
2022/06/13 23:37:10;;;;;;;1.73;1.02;;;;;;;;;;5048620;27;97130;-71
2022/06/13 23:39:37;;;;;;;2.83;1.20;;;;;;;;;;5074753;27;97727;-71
2022/06/13 23:42:03;;;;;;;2.72;1.35;;;;;;;;;;5073948;27;95286;-71
2022/06/13 23:44:31;;;;;;;3.35;1.40;;;;;;;;;;5073294;27;95719;-71
2022/06/13 23:46:58;;;;;;;1.67;1.15;;;;;;;;;;5072246;27;96052;-71
2022/06/13 23:49:24;;;;;;;2.50;1.30;;;;;;;;;;5072146;27;95948;-71
2022/06/13 23:51:50;;;;;;;3.35;1.30;;;;;;;;;;5068747;27;97050;-71
2022/06/13 23:54:17;;;;;;;4.32;1.08;;;;;;;;;;5064246;27;95428;-71
2022/06/13 23:56:43;;;;;;;1.63;0.90;;;;;;;;;;5072048;27;96575;-71
2022/06/13 23:59:10;;;;;;;4.18;1.30;;;;;;;;;;5071487;27;96275;-72
